Time;durP1;ratioP1;P1;durP2;ratioP2;P2;SDS_P1;SDS_P2;PMS_P1;PMS_P2;Temp;Humidity;BMP_temperature;BMP_pressure;BME280_temperature;BME280_humidity;BME280_pressure;Samples;Min_cycle;Max_cycle;Signal;HPM_P1;HPM_P2
2022/03/28 00:01:25;;;;;;;;;50.75;37.75;;;;;-142.59;100.00;56100.38;5113094;27;49732;-64
2022/03/28 00:03:51;;;;;;;;;46.00;38.00;;;;;-142.59;100.00;56100.38;5098503;27;49788;-68
2022/03/28 00:06:16;;;;;;;;;48.50;40.50;;;;;-142.59;100.00;56100.38;5113145;27;49848;-63
2022/03/28 00:08:41;;;;;;;;;45.00;39.25;;;;;-142.59;100.00;56100.38;5113121;27;49811;-64
2022/03/28 00:11:07;;;;;;;;;47.50;39.75;;;;;-142.59;100.00;56100.38;5112520;27;49791;-64
2022/03/28 00:13:33;;;;;;;;;50.75;40.00;;;;;-142.59;100.00;56100.38;5112888;27;49655;-64
2022/03/28 00:15:59;;;;;;;;;50.25;40.50;;;;;-142.59;100.00;56100.38;5112702;27;49897;-65
2022/03/28 00:18:24;;;;;;;;;51.25;42.00;;;;;-142.59;100.00;56100.38;5113268;27;49836;-63
2022/03/28 00:20:53;;;;;;;;;51.75;40.75;;;;;-142.59;100.00;56100.38;5112840;27;50582;-65
2022/03/28 00:23:18;;;;;;;;;48.75;38.00;;;;;-142.59;100.00;56100.38;5112872;27;49722;-70
2022/03/28 00:25:45;;;;;;;;;43.00;38.50;;;;;-142.59;100.00;56100.38;5112546;27;49979;-70
2022/03/28 00:28:11;;;;;;;;;42.25;36.50;;;;;-142.59;100.00;56100.38;5112618;27;49833;-72
2022/03/28 00:30:37;;;;;;;;;42.75;37.00;;;;;-142.59;100.00;56100.38;5112430;27;49925;-72
2022/03/28 00:33:03;;;;;;;;;44.75;38.75;;;;;-142.59;100.00;56100.38;5111763;27;50359;-69
2022/03/28 00:35:29;;;;;;;;;46.50;38.00;;;;;-142.59;100.00;56100.38;5112612;27;49850;-73
2022/03/28 00:37:55;;;;;;;;;46.75;38.00;;;;;-142.59;100.00;56100.38;5112033;27;50131;-64
2022/03/28 00:40:20;;;;;;;;;44.25;39.50;;;;;-142.59;100.00;56100.38;5112361;27;50533;-72
2022/03/28 00:42:49;;;;;;;;;45.25;37.75;;;;;-142.59;100.00;56100.38;5112224;27;50006;-74
2022/03/28 00:45:15;;;;;;;;;46.50;40.00;;;;;-142.59;100.00;56100.38;5112367;27;49748;-73
2022/03/28 00:47:41;;;;;;;;;44.75;38.75;;;;;-142.59;100.00;56100.38;5112644;27;49902;-71
2022/03/28 00:50:08;;;;;;;;;47.50;40.25;;;;;-142.59;100.00;56100.38;5112150;27;51330;-70
2022/03/28 00:52:34;;;;;;;;;45.75;38.25;;;;;-142.59;100.00;56100.38;5112317;27;49806;-72
2022/03/28 00:55:01;;;;;;;;;47.50;40.75;;;;;-142.59;100.00;56100.38;5101867;27;49991;-70
2022/03/28 00:57:29;;;;;;;;;51.50;40.25;;;;;-142.59;100.00;56100.38;5092347;27;49733;-72
2022/03/28 00:59:55;;;;;;;;;47.50;37.25;;;;;-142.59;100.00;56100.38;5092214;27;50442;-74
2022/03/28 01:02:20;;;;;;;;;44.75;38.00;;;;;-142.59;100.00;56100.38;5092208;27;49813;-71
2022/03/28 01:04:46;;;;;;;;;46.75;39.25;;;;;-142.59;100.00;56100.38;5092457;27;49854;-70
2022/03/28 01:07:13;;;;;;;;;49.00;39.50;;;;;-142.59;100.00;56100.38;5092675;27;50002;-68
2022/03/28 01:09:39;;;;;;;;;50.00;40.50;;;;;-142.59;100.00;56100.38;5092341;27;49826;-74
2022/03/28 01:12:06;;;;;;;;;55.25;42.50;;;;;-142.59;100.00;56100.38;5092071;27;50245;-74
2022/03/28 01:14:33;;;;;;;;;50.00;39.00;;;;;-142.59;100.00;56100.38;5092243;27;49981;-72
2022/03/28 01:19:42;;;;;;;;;45.50;39.75;;;;;-142.59;100.00;56100.38;5091906;27;50146;-72
2022/03/28 01:22:07;;;;;;;;;48.25;39.00;;;;;-142.59;100.00;56100.38;5098902;27;49737;-72
2022/03/28 01:24:33;;;;;;;;;46.50;40.00;;;;;-142.59;100.00;56100.38;5092020;27;49912;-73
2022/03/28 01:26:58;;;;;;;;;46.00;38.75;;;;;-142.59;100.00;56100.38;5092082;27;49749;-73
2022/03/28 01:29:25;;;;;;;;;44.00;38.75;;;;;-142.59;100.00;56100.38;5091998;27;49726;-75
2022/03/28 01:31:50;;;;;;;;;45.75;37.50;;;;;-142.59;100.00;56100.38;5092117;27;49603;-72
2022/03/28 01:34:20;;;;;;;;;37.25;31.00;;;;;-142.59;100.00;56100.38;5091949;27;49648;-74
2022/03/28 01:36:47;;;;;;;;;44.50;38.50;;;;;-142.59;100.00;56100.38;5091871;27;50208;-75
2022/03/28 01:39:16;;;;;;;;;45.00;38.75;;;;;-142.59;100.00;56100.38;5091467;27;50407;-75
2022/03/28 01:41:42;;;;;;;;;50.25;40.75;;;;;-142.59;100.00;56100.38;5091490;27;49720;-75
2022/03/28 01:44:07;;;;;;;;;49.25;39.00;;;;;-142.59;100.00;56100.38;5091767;27;49925;-66
2022/03/28 01:46:46;;;;;;;;;46.00;38.75;;;;;-142.59;100.00;56100.38;5092054;27;49966;-65
2022/03/28 01:49:12;;;;;;;;;45.50;37.50;;;;;-142.59;100.00;56100.38;5091582;27;49824;-65
2022/03/28 01:51:38;;;;;;;;;45.75;37.25;;;;;-142.59;100.00;56100.38;5091467;27;49681;-71
2022/03/28 01:54:04;;;;;;;;;42.75;37.00;;;;;-142.59;100.00;56100.38;5091453;27;50124;-63
2022/03/28 01:56:29;;;;;;;;;52.75;40.75;;;;;-142.59;100.00;56100.38;5103768;27;49911;-65
2022/03/28 01:58:55;;;;;;;;;45.50;39.25;;;;;-142.59;100.00;56100.38;5091351;27;50347;-67
2022/03/28 02:01:20;;;;;;;;;40.75;36.75;;;;;-142.59;100.00;56100.38;5091673;27;49766;-66
2022/03/28 02:03:45;;;;;;;;;45.00;38.50;;;;;-142.59;100.00;56100.38;5090176;27;50696;-67
2022/03/28 02:06:11;;;;;;;;;48.75;40.75;;;;;-142.59;100.00;56100.38;5091636;27;50037;-66
2022/03/28 02:08:36;;;;;;;;;48.50;40.25;;;;;-142.59;100.00;56100.38;5091456;27;49761;-66
2022/03/28 02:11:02;;;;;;;;;41.50;37.25;;;;;-142.59;100.00;56100.38;5089864;27;49990;-66
2022/03/28 02:13:27;;;;;;;;;52.50;41.50;;;;;-142.59;100.00;56100.38;5091265;27;49902;-66
2022/03/28 02:15:53;;;;;;;;;45.25;38.25;;;;;-142.59;100.00;56100.38;5091385;27;50100;-66
2022/03/28 02:18:18;;;;;;;;;52.50;41.00;;;;;-142.59;100.00;56100.38;5091137;27;49768;-66
2022/03/28 02:20:43;;;;;;;;;53.25;41.25;;;;;-142.59;100.00;56100.38;5091191;27;49823;-66
2022/03/28 02:23:09;;;;;;;;;51.25;40.25;;;;;-142.59;100.00;56100.38;5091391;27;49880;-66
2022/03/28 02:25:37;;;;;;;;;45.00;37.50;;;;;-142.59;100.00;56100.38;5091384;27;49856;-68
2022/03/28 02:28:03;;;;;;;;;40.50;37.50;;;;;-142.59;100.00;56100.38;5091126;27;49672;-65
2022/03/28 02:30:28;;;;;;;;;45.75;41.00;;;;;-142.59;100.00;56100.38;5090917;27;50226;-66
2022/03/28 02:32:54;;;;;;;;;44.50;39.00;;;;;-142.59;100.00;56100.38;5090898;27;49709;-65
2022/03/28 02:35:23;;;;;;;;;54.00;42.50;;;;;-142.59;100.00;56100.38;5091116;27;49693;-66
2022/03/28 02:37:48;;;;;;;;;46.25;39.50;;;;;-142.59;100.00;56100.38;5090902;27;49699;-67
2022/03/28 02:40:14;;;;;;;;;52.00;40.75;;;;;-142.59;100.00;56100.38;5090893;27;49858;-65
2022/03/28 02:42:39;;;;;;;;;34.50;32.00;;;;;-142.59;100.00;56100.38;5091199;27;49768;-65
2022/03/28 02:45:05;;;;;;;;;52.25;42.50;;;;;-142.59;100.00;56100.38;5091329;27;49901;-66
2022/03/28 02:47:31;;;;;;;;;44.00;39.00;;;;;-142.59;100.00;56100.38;5090664;27;49815;-65
2022/03/28 02:49:56;;;;;;;;;51.50;41.75;;;;;-142.59;100.00;56100.38;5090860;27;49736;-65
2022/03/28 02:52:22;;;;;;;;;49.25;39.50;;;;;-142.59;100.00;56100.38;5090714;27;49932;-66
2022/03/28 02:54:48;;;;;;;;;44.00;39.00;;;;;-142.59;100.00;56100.38;5090931;27;49739;-65
2022/03/28 02:57:14;;;;;;;;;42.25;38.00;;;;;-142.59;100.00;56100.38;5092533;27;50244;-65
2022/03/28 02:59:39;;;;;;;;;48.50;40.75;;;;;-142.59;100.00;56100.38;5094335;27;49824;-65
2022/03/28 03:02:05;;;;;;;;;49.25;41.00;;;;;-142.59;100.00;56100.38;5094339;27;49978;-66
2022/03/28 03:04:31;;;;;;;;;41.00;36.50;;;;;-142.59;100.00;56100.38;5094567;27;49824;-74
2022/03/28 03:06:57;;;;;;;;;52.50;39.75;;;;;-142.59;100.00;56100.38;5093978;27;49957;-74
2022/03/28 03:09:23;;;;;;;;;47.25;38.75;;;;;-142.59;100.00;56100.38;5094112;27;49877;-75
2022/03/28 03:11:48;;;;;;;;;54.75;38.25;;;;;-142.59;100.00;56100.38;5093924;27;49730;-75
2022/03/28 03:14:13;;;;;;;;;49.50;41.00;;;;;-142.59;100.00;56100.38;5094470;27;49683;-73
2022/03/28 03:16:40;;;;;;;;;51.00;43.50;;;;;-142.59;100.00;56100.38;5094007;27;50379;-72
2022/03/28 03:19:06;;;;;;;;;51.25;43.50;;;;;-142.59;100.00;56100.38;5094221;27;49864;-74
2022/03/28 03:21:32;;;;;;;;;50.00;41.25;;;;;-142.59;100.00;56100.38;5094295;27;49680;-73
2022/03/28 03:23:57;;;;;;;;;47.25;39.25;;;;;-142.59;100.00;56100.38;5094152;27;49672;-75
2022/03/28 03:26:22;;;;;;;;;54.00;44.00;;;;;-142.59;100.00;56100.38;5092125;27;52849;-72
2022/03/28 03:28:48;;;;;;;;;45.50;40.25;;;;;-142.59;100.00;56100.38;5093854;27;49758;-75
2022/03/28 03:31:13;;;;;;;;;48.75;41.75;;;;;-142.59;100.00;56100.38;5093802;27;49861;-74
2022/03/28 03:33:39;;;;;;;;;53.50;43.25;;;;;-142.59;100.00;56100.38;5094070;27;49714;-71
2022/03/28 03:36:06;;;;;;;;;53.50;44.50;;;;;-142.59;100.00;56100.38;5093621;27;49781;-75
2022/03/28 03:38:31;;;;;;;;;50.75;38.75;;;;;-142.59;100.00;56100.38;5093853;27;49888;-75
2022/03/28 03:40:57;;;;;;;;;60.25;44.50;;;;;-142.59;100.00;56100.38;5093738;27;49887;-75
2022/03/28 03:43:24;;;;;;;;;54.50;45.75;;;;;-142.59;100.00;56100.38;5092521;27;49793;-74
2022/03/28 03:45:49;;;;;;;;;52.75;44.00;;;;;-142.59;100.00;56100.38;5093246;27;50983;-66
2022/03/28 03:48:15;;;;;;;;;47.50;41.25;;;;;-142.59;100.00;56100.38;5092299;27;49856;-66
2022/03/28 03:50:41;;;;;;;;;55.75;44.00;;;;;-142.59;100.00;56100.38;5093647;27;49671;-65
2022/03/28 03:53:07;;;;;;;;;56.00;43.50;;;;;-142.59;100.00;56100.38;5092471;27;50262;-66
2022/03/28 03:55:33;;;;;;;;;54.75;43.00;;;;;-142.59;100.00;56100.38;5093266;27;49615;-64
2022/03/28 03:57:58;;;;;;;;;49.50;41.00;;;;;-142.59;100.00;56100.38;5093407;27;49613;-64
2022/03/28 04:00:24;;;;;;;;;53.25;44.50;;;;;-142.59;100.00;56100.38;5093416;27;49714;-65
2022/03/28 04:02:50;;;;;;;;;53.50;44.00;;;;;-142.59;100.00;56100.38;5093606;27;49627;-65
2022/03/28 04:05:17;;;;;;;;;46.50;41.00;;;;;-142.59;100.00;56100.38;5093148;27;50803;-65
2022/03/28 04:07:42;;;;;;;;;51.00;41.00;;;;;-142.59;100.00;56100.38;5092152;27;49664;-65
2022/03/28 04:10:08;;;;;;;;;54.25;41.75;;;;;-142.59;100.00;56100.38;5093378;27;49768;-65
2022/03/28 04:12:33;;;;;;;;;52.00;42.50;;;;;-142.59;100.00;56100.38;5093272;27;49625;-65
2022/03/28 04:15:00;;;;;;;;;50.50;42.00;;;;;-142.59;100.00;56100.38;5092906;27;49953;-70
2022/03/28 04:17:28;;;;;;;;;45.00;39.25;;;;;-142.59;100.00;56100.38;5093219;27;49922;-66
2022/03/28 04:19:53;;;;;;;;;55.75;45.00;;;;;-142.59;100.00;56100.38;5093188;27;49695;-65
2022/03/28 04:22:19;;;;;;;;;55.00;41.25;;;;;-142.59;100.00;56100.38;5106745;27;49843;-65
2022/03/28 04:24:44;;;;;;;;;56.00;47.00;;;;;-142.59;100.00;56100.38;5112735;27;49689;-65
2022/03/28 04:27:10;;;;;;;;;63.50;46.75;;;;;-142.59;100.00;56100.38;5112565;27;50100;-65
2022/03/28 04:29:35;;;;;;;;;57.50;45.25;;;;;-142.59;100.00;56100.38;5112751;27;49802;-65
2022/03/28 04:32:00;;;;;;;;;52.75;41.00;;;;;-142.59;100.00;56100.38;5100470;27;49811;-64
2022/03/28 04:34:26;;;;;;;;;44.25;36.75;;;;;-142.59;100.00;56100.38;5092751;27;49580;-64
2022/03/28 04:36:51;;;;;;;;;53.75;42.75;;;;;-142.59;100.00;56100.38;5092681;27;49724;-64
2022/03/28 04:39:18;;;;;;;;;50.50;41.75;;;;;-142.59;100.00;56100.38;5092840;27;49866;-65
2022/03/28 04:41:43;;;;;;;;;56.25;45.25;;;;;-142.59;100.00;56100.38;5092923;27;49905;-65
2022/03/28 04:44:09;;;;;;;;;55.25;42.50;;;;;-142.59;100.00;56100.38;5092209;27;49822;-64
2022/03/28 04:46:34;;;;;;;;;53.00;44.75;;;;;-142.59;100.00;56100.38;5103356;27;50048;-64
2022/03/28 04:49:02;;;;;;;;;48.00;42.50;;;;;-142.59;100.00;56100.38;5112538;27;49645;-64
2022/03/28 04:51:27;;;;;;;;;55.00;44.50;;;;;-142.59;100.00;56100.38;5112788;27;49943;-64
2022/03/28 04:53:52;;;;;;;;;47.75;40.75;;;;;-142.59;100.00;56100.38;5111956;27;49616;-64
2022/03/28 04:56:18;;;;;;;;;54.25;43.75;;;;;-142.59;100.00;56100.38;5112026;27;49716;-64
2022/03/28 04:58:43;;;;;;;;;55.50;44.25;;;;;-142.59;100.00;56100.38;5111919;27;50189;-63
2022/03/28 05:01:08;;;;;;;;;50.25;42.25;;;;;-142.59;100.00;56100.38;5112483;27;49660;-64
2022/03/28 05:03:34;;;;;;;;;55.00;44.25;;;;;-142.59;100.00;56100.38;5112037;27;50279;-64
2022/03/28 05:06:00;;;;;;;;;58.50;47.25;;;;;-142.59;100.00;56100.38;5112135;27;50031;-64
2022/03/28 05:08:25;;;;;;;;;62.50;49.00;;;;;-142.59;100.00;56100.38;5112349;27;49758;-64
2022/03/28 05:10:50;;;;;;;;;57.25;48.25;;;;;-142.59;100.00;56100.38;5112299;27;49773;-64
2022/03/28 05:13:16;;;;;;;;;55.50;43.50;;;;;-142.59;100.00;56100.38;5111505;27;50779;-64
2022/03/28 05:15:41;;;;;;;;;47.25;39.00;;;;;-142.59;100.00;56100.38;5111701;27;49855;-67
2022/03/28 05:18:07;;;;;;;;;55.25;46.75;;;;;-142.59;100.00;56100.38;5112386;27;49671;-63
2022/03/28 05:20:32;;;;;;;;;54.75;43.50;;;;;-142.59;100.00;56100.38;5111818;27;49980;-65
2022/03/28 05:22:57;;;;;;;;;56.75;43.25;;;;;-142.59;100.00;56100.38;5111658;27;50835;-64
2022/03/28 05:25:23;;;;;;;;;55.25;46.00;;;;;-142.59;100.00;56100.38;5111890;27;49800;-64
2022/03/28 05:27:49;;;;;;;;;57.00;45.75;;;;;-142.59;100.00;56100.38;5111606;27;49688;-64
2022/03/28 05:30:16;;;;;;;;;46.50;38.75;;;;;-142.59;100.00;56100.38;5111859;27;49591;-64
2022/03/28 05:32:42;;;;;;;;;55.00;43.00;;;;;-142.59;100.00;56100.38;5111411;27;51657;-64
2022/03/28 05:35:08;;;;;;;;;49.25;42.00;;;;;-142.59;100.00;56100.38;5111546;27;49959;-66
2022/03/28 05:37:34;;;;;;;;;56.25;46.75;;;;;-142.59;100.00;56100.38;5114603;27;49627;-67
2022/03/28 05:40:01;;;;;;;;;54.25;44.75;;;;;-142.59;100.00;56100.38;5111865;27;49736;-74
2022/03/28 05:42:27;;;;;;;;;50.75;42.25;;;;;-142.59;100.00;56100.38;5111248;27;50690;-69
2022/03/28 05:44:52;;;;;;;;;56.75;45.75;;;;;-142.59;100.00;56100.38;5111833;27;49706;-63
2022/03/28 05:47:18;;;;;;;;;62.00;45.75;;;;;-142.59;100.00;56100.38;5111664;27;49925;-62
2022/03/28 05:49:43;;;;;;;;;48.50;41.75;;;;;-142.59;100.00;56100.38;5111572;27;49868;-64
2022/03/28 05:52:09;;;;;;;;;49.00;41.75;;;;;-142.59;100.00;56100.38;5110992;27;50703;-68
2022/03/28 05:54:35;;;;;;;;;54.50;44.00;;;;;-142.59;100.00;56100.38;5111430;27;49820;-65
2022/03/28 05:57:01;;;;;;;;;47.25;42.25;;;;;-142.59;100.00;56100.38;5109914;27;49820;-64
2022/03/28 05:59:27;;;;;;;;;53.75;45.00;;;;;-142.59;100.00;56100.38;5111521;27;49813;-71
2022/03/28 06:01:52;;;;;;;;;58.00;48.00;;;;;-142.59;100.00;56100.38;5107799;27;51067;-72
2022/03/28 06:04:18;;;;;;;;;55.50;45.50;;;;;-142.59;100.00;56100.38;5089421;27;49682;-66
2022/03/28 06:06:43;;;;;;;;;45.75;38.25;;;;;-142.59;100.00;56100.38;5090253;27;49679;-65
2022/03/28 06:09:10;;;;;;;;;58.25;46.75;;;;;-142.59;100.00;56100.38;5105654;27;49883;-66
2022/03/28 06:11:35;;;;;;;;;53.50;43.00;;;;;-142.59;100.00;56100.38;5110553;27;50001;-66
2022/03/28 06:14:01;;;;;;;;;60.25;47.50;;;;;-142.59;100.00;56100.38;5110746;27;49635;-72
2022/03/28 06:16:26;;;;;;;;;57.75;42.75;;;;;-142.59;100.00;56100.38;5111320;27;49726;-70
2022/03/28 06:18:53;;;;;;;;;58.75;42.50;;;;;-142.59;100.00;56100.38;5111684;27;50066;-70
2022/03/28 06:21:19;;;;;;;;;60.00;47.00;;;;;-142.59;100.00;56100.38;5091152;27;49670;-67
2022/03/28 06:23:44;;;;;;;;;60.00;45.00;;;;;-142.59;100.00;56100.38;5091327;27;49734;-72
2022/03/28 06:26:13;;;;;;;;;64.25;50.00;;;;;-142.59;100.00;56100.38;5091101;27;50068;-71
2022/03/28 06:28:39;;;;;;;;;58.50;46.00;;;;;-142.59;100.00;56100.38;5091107;27;50034;-68
2022/03/28 06:31:06;;;;;;;;;55.75;45.75;;;;;-142.59;100.00;56100.38;5092497;27;50697;-66
2022/03/28 06:33:31;;;;;;;;;57.75;45.25;;;;;-142.59;100.00;56100.38;5094877;27;50031;-76
2022/03/28 06:35:57;;;;;;;;;59.75;49.75;;;;;-142.59;100.00;56100.38;5094952;27;50475;-74
2022/03/28 06:38:23;;;;;;;;;58.75;47.25;;;;;-142.59;100.00;56100.38;5095236;27;49833;-73
2022/03/28 06:40:48;;;;;;;;;57.50;46.50;;;;;-142.59;100.00;56100.38;5094660;27;50595;-73
2022/03/28 06:43:14;;;;;;;;;62.25;49.00;;;;;-142.59;100.00;56100.38;5094420;27;49686;-73
2022/03/28 06:45:39;;;;;;;;;61.00;46.75;;;;;-142.59;100.00;56100.38;5102979;27;50202;-66
2022/03/28 06:48:05;;;;;;;;;63.00;51.50;;;;;-142.59;100.00;56100.38;5102369;27;50190;-61
2022/03/28 06:50:31;;;;;;;;;52.00;44.25;;;;;-142.59;100.00;56100.38;5103592;27;50433;-73
2022/03/28 06:52:57;;;;;;;;;64.00;49.75;;;;;-142.59;100.00;56100.38;5103547;27;49730;-67
2022/03/28 06:55:23;;;;;;;;;62.50;48.00;;;;;-142.59;100.00;56100.38;5102146;27;49889;-72
2022/03/28 06:57:48;;;;;;;;;62.00;48.25;;;;;-142.59;100.00;56100.38;5114124;27;49770;-72
2022/03/28 07:00:14;;;;;;;;;50.50;43.75;;;;;-142.59;100.00;56100.38;5116015;27;50403;-68
2022/03/28 07:02:40;;;;;;;;;62.50;49.75;;;;;-142.59;100.00;56100.38;5097742;27;49739;-69
2022/03/28 07:05:07;;;;;;;;;66.25;50.00;;;;;-142.59;100.00;56100.38;5110742;27;49690;-68
2022/03/28 07:07:39;;;;;;;;;60.75;48.50;;;;;-142.59;100.00;56100.38;5098578;27;50195;-69
2022/03/28 07:10:06;;;;;;;;;67.25;51.25;;;;;-142.59;100.00;56100.38;5105081;27;50181;-68
2022/03/28 07:12:31;;;;;;;;;67.50;53.25;;;;;-142.59;100.00;56100.38;5097824;27;49849;-65
2022/03/28 07:14:56;;;;;;;;;67.75;52.00;;;;;-142.59;100.00;56100.38;5100654;27;49946;-69
2022/03/28 07:17:22;;;;;;;;;66.50;51.25;;;;;-142.59;100.00;56100.38;5094284;27;50265;-69
2022/03/28 07:19:47;;;;;;;;;65.75;51.00;;;;;-142.59;100.00;56100.38;5106357;27;50372;-76
2022/03/28 07:22:12;;;;;;;;;72.25;53.75;;;;;-142.59;100.00;56100.38;5112070;27;49663;-66
2022/03/28 07:24:38;;;;;;;;;68.50;54.25;;;;;-142.59;100.00;56100.38;5107021;27;49904;-71
2022/03/28 07:27:03;;;;;;;;;66.25;50.50;;;;;-142.59;100.00;56100.38;5100912;27;49790;-72
2022/03/28 07:29:28;;;;;;;;;70.75;55.00;;;;;-142.59;100.00;56100.38;5096363;27;50300;-68
2022/03/28 07:31:56;;;;;;;;;71.25;52.50;;;;;-142.59;100.00;56100.38;5112876;27;49612;-72
2022/03/28 07:34:32;;;;;;;;;64.00;51.75;;;;;-142.59;100.00;56100.38;5100221;27;49731;-74
2022/03/28 07:36:58;;;;;;;;;71.00;55.75;;;;;-142.59;100.00;56100.38;5103877;27;49843;-69
2022/03/28 07:39:24;;;;;;;;;67.75;53.00;;;;;-142.59;100.00;56100.38;5100796;27;49829;-71
2022/03/28 07:41:50;;;;;;;;;64.00;50.50;;;;;-142.59;100.00;56100.38;5107865;27;49858;-64
2022/03/28 07:44:15;;;;;;;;;66.50;52.25;;;;;-142.59;100.00;56100.38;5106535;27;50044;-62
2022/03/28 07:46:41;;;;;;;;;69.00;54.25;;;;;-142.59;100.00;56100.38;5108573;27;49598;-63
2022/03/28 07:49:09;;;;;;;;;67.50;51.50;;;;;-142.59;100.00;56100.38;5097560;27;49843;-62
2022/03/28 07:51:35;;;;;;;;;65.00;51.75;;;;;-142.59;100.00;56100.38;5100682;27;49794;-62
2022/03/28 07:54:01;;;;;;;;;67.00;50.50;;;;;-142.59;100.00;56100.38;5096591;27;49908;-61
2022/03/28 07:56:26;;;;;;;;;70.00;55.00;;;;;-142.59;100.00;56100.38;5098957;27;49667;-61
2022/03/28 07:58:52;;;;;;;;;70.25;55.00;;;;;-142.59;100.00;56100.38;5095011;27;49776;-61
2022/03/28 08:01:17;;;;;;;;;66.50;53.75;;;;;-142.59;100.00;56100.38;5098074;27;49742;-62
2022/03/28 08:03:43;;;;;;;;;68.75;54.00;;;;;-142.59;100.00;56100.38;5098607;27;50260;-61
2022/03/28 08:06:08;;;;;;;;;66.25;52.50;;;;;-142.59;100.00;56100.38;5099382;27;49972;-64
2022/03/28 08:08:35;;;;;;;;;68.00;53.25;;;;;-142.59;100.00;56100.38;5093258;27;49857;-61
2022/03/28 08:11:00;;;;;;;;;74.25;58.00;;;;;-142.59;100.00;56100.38;5093052;27;49713;-62
2022/03/28 08:13:26;;;;;;;;;64.50;49.75;;;;;-142.59;100.00;56100.38;5092634;27;49667;-69
2022/03/28 08:15:51;;;;;;;;;70.50;54.25;;;;;-142.59;100.00;56100.38;5093286;27;49744;-72
2022/03/28 08:18:17;;;;;;;;;65.00;53.00;;;;;-142.59;100.00;56100.38;5092503;27;49880;-67
2022/03/28 08:20:43;;;;;;;;;76.00;54.75;;;;;-142.59;100.00;56100.38;5093065;27;49936;-62
2022/03/28 08:23:09;;;;;;;;;69.00;54.00;;;;;-142.59;100.00;56100.38;5093124;27;49710;-62
2022/03/28 08:25:35;;;;;;;;;68.50;53.00;;;;;-142.59;100.00;56100.38;5093118;27;50009;-64
2022/03/28 08:28:00;;;;;;;;;69.00;52.00;;;;;-142.59;100.00;56100.38;5092792;27;50102;-69
2022/03/28 08:30:25;;;;;;;;;70.25;54.25;;;;;-142.59;100.00;56100.38;5093239;27;49872;-66
2022/03/28 08:32:51;;;;;;;;;67.00;53.50;;;;;-142.59;100.00;56100.38;5092655;27;49808;-62
2022/03/28 08:35:16;;;;;;;;;69.00;55.00;;;;;-142.59;100.00;56100.38;5092808;27;49752;-65
2022/03/28 08:37:43;;;;;;;;;69.25;54.75;;;;;-142.59;100.00;56100.38;5092516;27;50779;-63
2022/03/28 08:40:08;;;;;;;;;63.50;50.25;;;;;-142.59;100.00;56100.38;5092655;27;49618;-74
2022/03/28 08:42:34;;;;;;;;;68.50;51.00;;;;;-142.59;100.00;56100.38;5099284;27;49848;-72
2022/03/28 08:44:59;;;;;;;;;66.50;52.25;;;;;-142.59;100.00;56100.38;5092769;27;49953;-74
2022/03/28 08:47:25;;;;;;;;;72.00;53.75;;;;;-142.59;100.00;56100.38;5092264;27;50411;-73
2022/03/28 08:49:52;;;;;;;;;77.00;57.00;;;;;-142.59;100.00;56100.38;5092237;27;49767;-75
2022/03/28 08:52:18;;;;;;;;;69.00;53.75;;;;;-142.59;100.00;56100.38;5092208;27;50067;-71
2022/03/28 08:54:44;;;;;;;;;68.75;54.00;;;;;-142.59;100.00;56100.38;5091554;27;49681;-67
2022/03/28 08:57:12;;;;;;;;;71.25;54.75;;;;;-142.59;100.00;56100.38;5092170;27;50819;-71
2022/03/28 08:59:38;;;;;;;;;70.00;55.00;;;;;-142.59;100.00;56100.38;5092139;27;50031;-74
2022/03/28 09:02:03;;;;;;;;;75.25;53.75;;;;;-142.59;100.00;56100.38;5092111;27;49748;-75
2022/03/28 09:04:28;;;;;;;;;72.00;54.25;;;;;-142.59;100.00;56100.38;5092445;27;49839;-68
2022/03/28 09:06:54;;;;;;;;;68.50;53.75;;;;;-142.59;100.00;56100.38;5091933;27;49668;-70
2022/03/28 09:09:28;;;;;;;;;70.00;54.00;;;;;-142.59;100.00;56100.38;5091877;27;49845;-73
2022/03/28 09:11:56;;;;;;;;;71.00;53.75;;;;;-142.59;100.00;56100.38;5091745;27;49662;-73
2022/03/28 09:14:31;;;;;;;;;56.25;46.50;;;;;-142.59;100.00;56100.38;5092356;27;49736;-69
2022/03/28 09:17:15;;;;;;;;;66.50;53.00;;;;;-142.59;100.00;56100.38;5090401;27;52747;-72
2022/03/28 09:19:55;;;;;;;;;65.25;50.75;;;;;-142.59;100.00;56100.38;5092005;27;49784;-70
2022/03/28 09:22:32;;;;;;;;;63.00;48.50;;;;;-142.59;100.00;56100.38;5091991;27;49700;-61
2022/03/28 09:25:01;;;;;;;;;44.75;36.25;;;;;-142.59;100.00;56100.38;5092175;27;49680;-61
2022/03/28 09:27:32;;;;;;;;;65.00;48.25;;;;;-142.59;100.00;56100.38;5091491;27;49793;-61
2022/03/28 09:30:19;;;;;;;;;63.50;50.75;;;;;-142.59;100.00;56100.38;5092290;27;50086;-61
2022/03/28 09:32:51;;;;;;;;;64.00;49.00;;;;;-142.59;100.00;56100.38;5091727;27;49801;-61
2022/03/28 09:35:19;;;;;;;;;69.50;52.00;;;;;-142.59;100.00;56100.38;5091863;27;49815;-62
2022/03/28 09:38:01;;;;;;;;;63.50;50.25;;;;;-142.59;100.00;56100.38;5091754;27;49845;-64
2022/03/28 09:40:37;;;;;;;;;64.00;51.25;;;;;-142.59;100.00;56100.38;5091654;27;49765;-62
2022/03/28 09:43:22;;;;;;;;;64.25;50.50;;;;;-142.59;100.00;56100.38;5107535;27;49846;-65
2022/03/28 09:45:50;;;;;;;;;63.00;50.00;;;;;-142.59;100.00;56100.38;5091569;27;49700;-62
2022/03/28 09:48:19;;;;;;;;;55.75;44.50;;;;;-142.59;100.00;56100.38;5091577;27;49730;-62
2022/03/28 09:50:47;;;;;;;;;62.00;49.75;;;;;-142.59;100.00;56100.38;5098429;27;50059;-62
2022/03/28 09:53:18;;;;;;;;;62.00;48.75;;;;;-142.59;100.00;56100.38;5111689;27;50173;-64
2022/03/28 09:55:46;;;;;;;;;61.25;48.00;;;;;-142.59;100.00;56100.38;5111340;27;49753;-64
2022/03/28 09:58:43;;;;;;;;;64.00;51.00;;;;;-142.59;100.00;56100.38;5111127;27;50254;-65
2022/03/28 10:01:14;;;;;;;;;52.00;44.25;;;;;-142.59;100.00;56100.38;5091351;27;49748;-64
2022/03/28 10:03:41;;;;;;;;;62.50;48.00;;;;;-142.59;100.00;56100.38;5091235;27;49968;-65
2022/03/28 10:06:08;;;;;;;;;57.25;46.25;;;;;-142.59;100.00;56100.38;5091416;27;50096;-63
2022/03/28 10:08:35;;;;;;;;;59.50;47.50;;;;;-142.59;100.00;56100.38;5091050;27;49871;-60
2022/03/28 10:11:02;;;;;;;;;56.25;43.50;;;;;-142.59;100.00;56100.38;5091953;27;49647;-67
2022/03/28 10:13:29;;;;;;;;;53.25;43.50;;;;;-142.59;100.00;56100.38;5098264;27;49638;-62
2022/03/28 10:15:59;;;;;;;;;55.75;43.75;;;;;-142.59;100.00;56100.38;5091411;27;49924;-65
2022/03/28 10:18:36;;;;;;;;;53.00;43.50;;;;;-142.59;100.00;56100.38;5090824;27;49841;-66
2022/03/28 10:21:07;;;;;;;;;53.75;44.25;;;;;-142.59;100.00;56100.38;5090961;27;49617;-63
2022/03/28 10:23:44;;;;;;;;;59.25;47.50;;;;;-142.59;100.00;56100.38;5091520;27;49741;-67
2022/03/28 10:26:11;;;;;;;;;53.75;43.50;;;;;-142.59;100.00;56100.38;5091263;27;49774;-71
2022/03/28 10:28:38;;;;;;;;;53.50;42.50;;;;;-142.59;100.00;56100.38;5090954;27;50589;-79
2022/03/28 10:31:16;;;;;;;;;56.75;44.50;;;;;-142.59;100.00;56100.38;5091027;27;49824;-67
2022/03/28 10:33:50;;;;;;;;;49.50;41.25;;;;;-142.59;100.00;56100.38;5090938;27;49879;-74
2022/03/28 10:36:35;;;;;;;;;49.25;36.25;;;;;-142.59;100.00;56100.38;5091147;27;49848;-69
2022/03/28 10:39:31;;;;;;;;;55.00;42.75;;;;;-142.59;100.00;56100.38;5090765;27;50085;-80
2022/03/28 10:42:05;;;;;;;;;48.75;38.75;;;;;-142.59;100.00;56100.38;5090488;27;49824;-67
2022/03/28 10:44:45;;;;;;;;;45.00;35.75;;;;;-142.59;100.00;56100.38;5090808;27;49899;-71
2022/03/28 10:47:13;;;;;;;;;54.25;44.75;;;;;-142.59;100.00;56100.38;5091017;27;49938;-67
2022/03/28 10:49:41;;;;;;;;;50.50;42.50;;;;;-142.59;100.00;56100.38;5089728;27;50675;-68
2022/03/28 10:52:11;;;;;;;;;54.25;42.00;;;;;-142.59;100.00;56100.38;5090653;27;49654;-73
2022/03/28 10:54:38;;;;;;;;;40.50;35.25;;;;;-142.59;100.00;56100.38;5090700;27;49545;-72
2022/03/28 10:57:04;;;;;;;;;51.50;40.00;;;;;-142.59;100.00;56100.38;5090483;27;49974;-72